MKJS/MBJ METAR and TAF weather

Enter ICAO airport designator
Station Type Date Time Source
MKJS METAR 2021/03/05 07:00 UTC NOAA

MKJS 050700Z 17005KT 9999 FEW022 24/20 Q1012


Station Type Date Time Source
MKJS Decoded METAR 2021/03/05 07:00 UTC NOAA

Montego Bay / Sangster, Jamaica (MKJS) 18-30N 077-55W 8M
Mar 05, 2021 - 02:00 AM EST / 2021.03.05 0700 UTC
Wind: from the S (170 degrees) at 6 MPH (5 KT):0
Visibility: greater than 7 mile(s):0
Sky conditions: mostly clear
Temperature: 75 F (24 C)
Dew Point: 68 F (20 C)
Relative Humidity: 78%
Pressure (altimeter): 29.88 in. Hg (1012 hPa)
ob: MKJS 050700Z 17005KT 9999 FEW022 24/20 Q1012
cycle: 7

Station Type Date Time Source
MKJS TAF 2021/03/05 06:16 UTC NOAA

TAF MKJS 050515Z 0506/0606 19004KT 9999 FEW022
BECMG 0516/0518 04010KT PROB30
TEMPO 0518/0523 SHRA BKN020
BECMG 0603/0605 19004KT

Example: see airport list